In Rescue
 
Open Full Screen Window  High Contrast Mode
Wind Gusting 00 knots
06
April 02, 2020 11:13 PM CDT
Present Weather: Light Snow
Weather Information
Wind Direction
  340 °
Wind Speed
  06 kt (7 mph)
Wind Gust
  00 kt (0 mph)
Altimeter
30.07 in
Visibility
1 1/2 SM
Temperature
-08° C
18° F
Dewpoint
-08° C
18° F
Humidity
100%
1hr Rain Fall
00.00 in.
24hr Rain Fall
00.10 in.
Sky Condition
Overcast @ 3,600 ft
Broken @ 1,300 ft
Scattered @ 800 ft
IFR

METAR KCKN 030413Z AUTO 34006KT 1 1/2SM -SN SCT008 BKN013 OVC036 M08/M08 A3007 RMK AO2

FAA Disclaimer: The data displayed is for advisory purposes only and is not to be used for flight planning or operations.